Time;durP1;ratioP1;P1;durP2;ratioP2;P2;SDS_P1;SDS_P2;PMS_P1;PMS_P2;Temp;Humidity;BMP_temperature;BMP_pressure;BME280_temperature;BME280_humidity;BME280_pressure;Samples;Min_cycle;Max_cycle;Signal;HPM_P1;HPM_P2
2021/07/28 00:04:40;;;;;;;4.85;4.50;;;;;;;20.91;65.90;99606.66;10614027;28;20051;-86
2021/07/28 00:09:41;;;;;;;4.43;4.13;;;;;;;21.01;65.73;99610.25;10573178;28;20056;-85
2021/07/28 00:14:43;;;;;;;4.50;4.20;;;;;;;21.50;64.12;99638.31;10570459;28;20085;-87
2021/07/28 00:19:51;;;;;;;5.00;4.60;;;;;;;21.19;65.29;99636.44;10586116;28;20055;-85
2021/07/28 00:24:53;;;;;;;4.70;4.30;;;;;;;21.06;65.95;99645.47;10585460;28;20065;-86
2021/07/28 00:29:54;;;;;;;5.00;4.25;;;;;;;20.78;66.40;99640.66;10604465;28;20051;-86
2021/07/28 00:34:56;;;;;;;4.72;4.35;;;;;;;20.90;66.07;99626.31;10584406;28;20043;-85
2021/07/28 00:39:57;;;;;;;4.25;4.00;;;;;;;20.80;66.41;99606.66;10582062;28;20120;-86
2021/07/28 00:44:59;;;;;;;4.55;4.25;;;;;;;20.70;66.94;99611.06;10601522;28;20095;-86
2021/07/28 00:50:02;;;;;;;4.00;3.70;;;;;;;20.94;65.45;99619.75;10582322;28;20058;-85
2021/07/28 00:55:05;;;;;;;5.50;4.65;;;;;;;20.88;65.65;99631.78;10584592;28;20126;-86
2021/07/28 01:00:07;;;;;;;5.55;4.20;;;;;;;20.87;65.44;99629.25;10595097;28;20058;-84
2021/07/28 01:05:09;;;;;;;5.15;4.75;;;;;;;20.99;65.84;99632.75;10581196;28;20050;-87
2021/07/28 01:10:12;;;;;;;4.45;4.05;;;;;;;20.93;65.95;99626.06;10563077;28;20491;-84
2021/07/28 01:15:22;;;;;;;4.53;4.15;;;;;;;20.49;67.41;99614.44;10578307;28;20051;-85
2021/07/28 01:20:30;;;;;;;4.30;4.00;;;;;;;20.33;68.12;99629.97;10598069;28;20043;-86
2021/07/28 01:25:33;;;;;;;5.07;4.60;;;;;;;20.24;67.80;99630.69;10577786;28;20105;-86
2021/07/28 01:30:35;;;;;;;4.75;4.45;;;;;;;20.21;68.44;99633.59;10563731;28;20132;-85
2021/07/28 01:35:38;;;;;;;4.70;4.40;;;;;;;20.22;68.62;99619.28;10571251;28;20039;-84
2021/07/28 01:40:40;;;;;;;4.20;3.90;;;;;;;20.34;68.56;99631.66;10588726;28;20071;-86
2021/07/28 01:45:42;;;;;;;5.47;5.07;;;;;;;20.52;67.92;99619.56;10587812;28;20082;-85
2021/07/28 01:50:45;;;;;;;4.85;4.03;;;;;;;20.70;66.62;99621.72;10588070;28;20039;-85
2021/07/28 01:55:47;;;;;;;4.45;4.15;;;;;;;20.27;68.73;99619.75;10585346;28;20370;-85
2021/07/28 02:00:52;;;;;;;5.43;4.85;;;;;;;20.54;67.89;99622.97;10585363;28;20119;-85
2021/07/28 02:05:57;;;;;;;5.25;4.03;;;;;;;20.13;69.58;99615.50;10583888;28;20130;-85
2021/07/28 02:10:59;;;;;;;4.93;4.63;;;;;;;20.27;68.97;99615.25;10581706;28;20051;-84
2021/07/28 02:16:00;;;;;;;5.00;4.70;;;;;;;20.03;70.10;99612.72;10584073;28;20116;-85
2021/07/28 02:21:04;;;;;;;5.13;4.72;;;;;;;20.07;70.34;99605.31;10584551;28;20373;-85
2021/07/28 02:26:05;;;;;;;5.07;4.68;;;;;;;20.09;70.14;99614.88;10584433;28;20495;-85
2021/07/28 02:31:07;;;;;;;5.05;4.65;;;;;;;19.76;71.29;99605.03;10603474;28;20135;-84
2021/07/28 02:36:11;;;;;;;5.47;5.07;;;;;;;20.08;70.16;99607.00;10592895;22;20044;-85
2021/07/28 02:41:12;;;;;;;5.10;4.70;;;;;;;19.62;72.10;99614.06;10612983;28;20051;-85
2021/07/28 02:46:14;;;;;;;5.68;5.28;;;;;;;19.54;72.51;99605.78;10612946;28;20052;-82
2021/07/28 02:51:16;;;;;;;5.55;5.15;;;;;;;19.91;71.07;99614.50;10594518;28;20048;-85
2021/07/28 02:56:17;;;;;;;6.20;5.70;;;;;;;19.84;71.33;99609.78;10612562;28;20129;-83
2021/07/28 03:01:19;;;;;;;5.85;5.38;;;;;;;19.63;72.51;99684.25;10604792;28;20114;-84
2021/07/28 03:06:20;;;;;;;5.75;5.30;;;;;;;19.50;70.40;99676.28;10603000;28;20091;-83
2021/07/28 03:11:22;;;;;;;5.50;5.00;;;;;;;20.05;66.89;99696.13;10600461;28;20115;-83
2021/07/28 03:16:24;;;;;;;4.80;4.40;;;;;;;20.23;66.63;99701.03;10600514;28;20093;-84
2021/07/28 03:21:26;;;;;;;7.63;5.40;;;;;;;19.89;69.93;99652.94;10594351;28;20039;-85
2021/07/28 03:26:28;;;;;;;5.70;5.15;;;;;;;19.82;71.05;99673.88;10629850;28;20141;-83
2021/07/28 03:31:29;;;;;;;6.53;5.95;;;;;;;19.56;73.25;99656.28;10611693;28;20057;-84
2021/07/28 03:36:31;;;;;;;5.95;5.55;;;;;;;19.72;73.36;99651.56;10592241;28;20135;-85
2021/07/28 03:41:34;;;;;;;6.05;5.65;;;;;;;19.43;75.81;99645.69;10589604;28;20048;-84
2021/07/28 03:46:36;;;;;;;6.60;6.10;;;;;;;19.30;75.68;99660.91;10587131;28;20131;-83
2021/07/28 03:51:37;;;;;;;6.97;6.38;;;;;;;19.45;75.85;99672.25;10586714;28;20109;-84
2021/07/28 03:56:39;;;;;;;8.63;7.15;;;;;;;19.19;77.52;99667.03;10569497;28;20493;-84
2021/07/28 04:01:40;;;;;;;7.07;6.45;;;;;;;19.25;78.25;99649.72;10586787;28;20051;-84
2021/07/28 04:06:42;;;;;;;6.15;5.55;;;;;;;19.53;76.90;99653.88;10605254;28;20047;-84
2021/07/28 04:11:44;;;;;;;6.40;5.90;;;;;;;19.52;75.77;99650.38;10601159;28;20051;-84
2021/07/28 04:16:46;;;;;;;7.50;6.90;;;;;;;19.49;77.31;99645.25;10621651;28;20043;-85
2021/07/28 04:21:47;;;;;;;7.65;5.65;;;;;;;19.52;76.90;99636.16;10583318;28;20048;-85
2021/07/28 04:26:49;;;;;;;6.85;5.30;;;;;;;19.88;72.88;99637.91;10585178;28;20087;-83
2021/07/28 04:31:50;;;;;;;5.50;5.07;;;;;;;19.93;74.21;99633.06;10585917;28;20062;-85
2021/07/28 04:36:52;;;;;;;6.65;6.10;;;;;;;19.83;74.55;99626.72;10581751;28;20080;-84
2021/07/28 04:41:53;;;;;;;6.18;5.75;;;;;;;20.04;74.46;99629.56;10601472;28;20043;-84
2021/07/28 04:46:56;;;;;;;5.53;5.13;;;;;;;20.25;71.71;99613.72;10602619;28;20039;-84
2021/07/28 04:51:58;;;;;;;4.97;4.68;;;;;;;20.48;70.92;99618.09;10583852;28;20055;-84
2021/07/28 04:56:59;;;;;;;5.75;5.07;;;;;;;20.52;72.44;99614.22;10587265;28;20123;-82
2021/07/28 05:02:01;;;;;;;6.75;5.28;;;;;;;20.72;69.70;99615.31;10597149;28;20052;-84
2021/07/28 05:07:03;;;;;;;6.20;5.70;;;;;;;20.51;71.04;99619.69;10586581;28;20051;-84
2021/07/28 05:12:06;;;;;;;5.65;5.32;;;;;;;20.45;69.35;99618.31;10609940;28;20047;-82
2021/07/28 05:17:07;;;;;;;5.32;4.93;;;;;;;20.32;70.73;99615.78;10608247;28;20048;-83
2021/07/28 05:22:09;;;;;;;6.43;5.82;;;;;;;20.34;72.79;99631.66;10601843;28;20049;-81
2021/07/28 05:27:11;;;;;;;6.75;6.03;;;;;;;20.44;72.14;99631.78;10606330;28;20050;-84
2021/07/28 05:32:12;;;;;;;6.97;6.32;;;;;;;20.40;72.10;99617.81;10601059;28;20392;-81
2021/07/28 05:37:14;;;;;;;5.97;5.57;;;;;;;20.44;71.85;99608.59;10599542;28;20032;-82
2021/07/28 05:42:16;;;;;;;6.05;5.55;;;;;;;20.73;70.79;99603.66;10562144;28;20106;-84
2021/07/28 05:47:17;;;;;;;6.05;5.65;;;;;;;21.05;70.52;99600.16;10596523;28;20443;-82
2021/07/28 05:52:18;;;;;;;6.45;6.05;;;;;;;20.89;71.64;99600.56;10596155;28;20036;-82
2021/07/28 05:57:20;;;;;;;6.97;6.45;;;;;;;20.68;72.09;99621.03;10594436;28;20047;-83
2021/07/28 06:02:22;;;;;;;6.85;6.30;;;;;;;20.77;72.53;99614.94;10577079;28;20055;-82
2021/07/28 06:07:24;;;;;;;10.15;6.70;;;;;;;20.73;72.51;99609.00;10577969;28;20040;-83
2021/07/28 06:12:26;;;;;;;8.15;7.53;;;;;;;21.03;71.53;99605.66;10575884;28;20112;-81
2021/07/28 06:17:27;;;;;;;7.07;6.57;;;;;;;21.51;69.83;99605.25;10575890;28;20059;-84
2021/07/28 06:22:29;;;;;;;7.00;6.50;;;;;;;21.38;69.71;99624.16;10596545;28;20059;-82
2021/07/28 06:27:31;;;;;;;6.88;6.40;;;;;;;21.34;69.97;99633.41;10595634;28;20051;-83
2021/07/28 06:32:33;;;;;;;6.85;6.35;;;;;;;21.36;69.69;99634.13;10594197;28;20161;-81
2021/07/28 06:37:34;;;;;;;6.75;6.25;;;;;;;21.56;69.72;99650.31;10592195;28;20039;-83
2021/07/28 06:42:36;;;;;;;5.53;4.85;;;;;;;21.51;69.50;99655.19;10593218;28;20047;-82
2021/07/28 06:47:37;;;;;;;7.30;5.63;;;;;;;21.50;70.26;99670.41;10594667;28;20106;-82
2021/07/28 06:52:39;;;;;;;6.65;5.90;;;;;;;21.56;70.06;99682.41;10594062;28;20050;-83
2021/07/28 06:57:41;;;;;;;7.65;5.30;;;;;;;22.02;67.10;99679.41;10574422;28;20055;-82
2021/07/28 07:02:42;;;;;;;5.35;4.88;;;;;;;21.97;65.32;99678.94;10593185;28;20039;-83
2021/07/28 07:07:47;;;;;;;5.43;4.93;;;;;;;21.78;65.70;99681.47;10574938;28;20051;-83
2021/07/28 07:12:49;;;;;;;5.53;4.88;;;;;;;21.62;68.17;99674.75;10593301;28;20050;-82
2021/07/28 07:17:54;;;;;;;5.43;5.03;;;;;;;21.41;67.77;99663.16;10576885;28;20134;-82
2021/07/28 07:22:55;;;;;;;4.80;4.50;;;;;;;21.48;66.93;99679.53;10594479;28;20123;-82
2021/07/28 07:28:04;;;;;;;5.63;5.10;;;;;;;21.47;67.90;99686.72;10591006;28;20067;-81
2021/07/28 07:38:26;;;;;;;6.45;5.60;;;;;;;21.10;69.08;99673.63;10610493;28;20059;-80
2021/07/28 07:43:27;;;;;;;6.32;5.72;;;;;;;21.27;68.69;99666.06;10584039;28;20052;-81
2021/07/28 07:48:29;;;;;;;6.57;6.07;;;;;;;21.35;69.61;99679.69;10575255;28;20059;-81
2021/07/28 07:53:31;;;;;;;6.55;5.95;;;;;;;21.41;71.35;99697.91;10576228;28;20047;-82
2021/07/28 07:58:34;;;;;;;6.90;6.38;;;;;;;21.23;72.12;99684.19;10575482;28;20117;-83
2021/07/28 08:03:37;;;;;;;6.68;5.70;;;;;;;21.14;71.45;99680.44;10574082;28;20143;-83
2021/07/28 08:08:39;;;;;;;5.45;5.05;;;;;;;21.49;69.66;99668.72;10593002;28;20032;-84
2021/07/28 08:13:41;;;;;;;5.95;5.50;;;;;;;21.36;71.76;99670.69;10591746;28;20052;-83
2021/07/28 08:18:43;;;;;;;5.43;5.03;;;;;;;21.82;68.69;99678.41;10573870;28;20101;-84
2021/07/28 08:23:48;;;;;;;5.47;5.07;;;;;;;22.15;68.62;99680.09;10596237;28;20047;-83
2021/07/28 08:28:53;;;;;;;6.00;5.50;;;;;;;22.31;67.25;99671.59;10581145;28;20044;-84
2021/07/28 08:33:55;;;;;;;5.43;5.00;;;;;;;22.82;66.66;99669.84;10586919;28;20055;-83
2021/07/28 08:38:57;;;;;;;5.97;5.38;;;;;;;23.23;62.58;99692.13;10569015;22;20054;-82
2021/07/28 08:43:58;;;;;;;5.40;5.05;;;;;;;23.31;61.86;99684.25;10537369;28;20400;-84
2021/07/28 08:49:02;;;;;;;5.53;5.13;;;;;;;23.32;62.47;99683.25;10553589;28;20046;-84
2021/07/28 08:54:03;;;;;;;5.43;4.93;;;;;;;23.48;62.51;99690.78;10537101;28;20055;-83
2021/07/28 08:59:06;;;;;;;4.60;4.30;;;;;;;23.53;59.93;99702.78;10565174;28;20044;-83
2021/07/28 09:04:07;;;;;;;4.88;4.47;;;;;;;23.33;60.12;99680.47;10551790;28;20063;-83
2021/07/28 09:09:10;;;;;;;4.35;3.95;;;;;;;23.09;59.22;99698.75;10541205;28;20044;-83
2021/07/28 09:14:19;;;;;;;3.30;3.10;;;;;;;22.92;58.58;99687.69;10537322;28;20044;-85
2021/07/28 09:19:41;;;;;;;3.55;3.35;;;;;;;23.57;55.65;99693.47;10562718;28;20078;-84
2021/07/28 09:24:44;;;;;;;3.00;2.80;;;;;;;24.04;55.24;99701.69;10532476;28;20048;-84
2021/07/28 09:29:46;;;;;;;3.72;3.47;;;;;;;24.23;54.17;99700.81;10548887;28;20386;-84
2021/07/28 09:34:54;;;;;;;3.83;3.53;;;;;;;24.69;53.02;99698.31;10551520;28;20052;-84
2021/07/28 09:39:56;;;;;;;3.58;3.28;;;;;;;24.63;54.51;99697.91;10567725;28;20048;-84
2021/07/28 09:44:59;;;;;;;3.03;2.83;;;;;;;24.46;53.39;99697.81;10547920;28;20048;-86
2021/07/28 09:50:01;;;;;;;3.00;2.80;;;;;;;24.91;50.28;99703.31;10544724;28;20119;-85
2021/07/28 09:55:28;;;;;;;2.63;2.50;;;;;;;25.00;50.20;99694.34;10551025;28;20071;-83
2021/07/28 10:00:30;;;;;;;3.00;2.70;;;;;;;25.52;48.58;99693.78;10544194;28;20092;-83
2021/07/28 10:05:36;;;;;;;2.33;2.17;;;;;;;26.39;46.07;99687.66;10527141;28;20048;-84
2021/07/28 10:10:38;;;;;;;2.30;2.20;;;;;;;26.79;46.47;99691.59;10561317;28;20036;-84
2021/07/28 10:15:39;;;;;;;2.33;2.10;;;;;;;26.57;45.37;99684.91;10563316;28;20085;-84
2021/07/28 10:20:41;;;;;;;2.00;1.90;;;;;;;27.34;46.77;99686.59;10562727;28;20070;-83
2021/07/28 10:25:43;;;;;;;2.50;2.30;;;;;;;27.35;45.26;99671.25;10545456;28;20048;-83
2021/07/28 10:31:14;;;;;;;1.98;1.88;;;;;;;27.21;45.39;99656.53;10541222;28;20101;-80
2021/07/28 10:36:21;;;;;;;2.25;2.05;;;;;;;27.27;45.13;99652.31;10549080;28;20055;-80
2021/07/28 10:41:44;;;;;;;2.58;2.35;;;;;;;26.96;45.50;99674.50;10550325;28;20044;-80
2021/07/28 10:46:52;;;;;;;2.50;2.28;;;;;;;26.59;45.34;99666.72;10550735;28;20063;-80
2021/07/28 10:51:55;;;;;;;2.30;2.10;;;;;;;26.38;45.70;99664.38;10550056;28;20380;-81
2021/07/28 10:57:29;;;;;;;2.75;2.50;;;;;;;26.24;46.49;99659.56;10516369;28;20124;-80
2021/07/28 11:02:57;;;;;;;2.63;2.13;;;;;;;27.57;45.34;99667.06;10546378;28;20165;-80
2021/07/28 11:07:58;;;;;;;2.45;2.25;;;;;;;26.67;45.41;99664.06;10529597;28;20047;-80
2021/07/28 11:13:09;;;;;;;2.35;2.10;;;;;;;26.22;46.35;99670.53;10548241;28;20080;-80
2021/07/28 11:18:10;;;;;;;3.47;2.53;;;;;;;27.22;42.84;99665.47;10549634;28;20101;-81
2021/07/28 11:23:21;;;;;;;2.88;2.50;;;;;;;27.55;42.83;99650.22;10549353;28;20067;-81
2021/07/28 11:28:23;;;;;;;2.65;2.45;;;;;;;27.44;45.80;99648.66;10529810;28;20431;-80
2021/07/28 11:33:27;;;;;;;2.42;2.22;;;;;;;27.76;42.92;99649.72;10553143;28;20047;-81
2021/07/28 11:38:36;;;;;;;2.20;2.03;;;;;;;27.71;41.93;99660.16;10533865;28;20044;-81
2021/07/28 11:43:39;;;;;;;3.58;2.08;;;;;;;27.09;43.44;99664.13;10549767;28;20068;-80
2021/07/28 11:48:46;;;;;;;2.35;2.15;;;;;;;27.20;43.90;99656.72;10548586;28;20043;-81
2021/07/28 11:53:47;;;;;;;2.50;2.30;;;;;;;27.57;43.26;99664.38;10550543;28;20131;-81
2021/07/28 11:58:51;;;;;;;2.45;2.22;;;;;;;27.12;42.23;99665.63;10549668;28;20062;-81
2021/07/28 12:03:54;;;;;;;2.58;2.38;;;;;;;27.30;42.52;99662.81;10550475;28;20074;-81
2021/07/28 12:09:07;;;;;;;2.38;1.90;;;;;;;26.57;42.81;99663.34;10558006;28;20048;-80
2021/07/28 12:14:09;;;;;;;3.22;2.17;;;;;;;26.56;43.77;99672.41;10549706;28;20063;-79
2021/07/28 12:19:10;;;;;;;2.40;2.20;;;;;;;26.34;43.46;99680.03;10550756;28;20032;-80
2021/07/28 12:24:12;;;;;;;2.40;2.20;;;;;;;26.03;44.55;99666.19;10528881;28;20055;-80
2021/07/28 12:29:37;;;;;;;2.33;2.13;;;;;;;25.91;44.94;99688.97;10547603;28;20086;-80
2021/07/28 12:34:39;;;;;;;2.45;2.25;;;;;;;25.72;44.19;99686.38;10544771;28;20043;-81
2021/07/28 12:39:41;;;;;;;2.60;2.40;;;;;;;25.40;44.60;99693.16;10545750;28;20027;-80
2021/07/28 12:45:10;;;;;;;2.83;2.20;;;;;;;25.20;45.13;99695.13;10544727;28;20054;-80
2021/07/28 12:50:11;;;;;;;3.25;2.50;;;;;;;25.36;46.60;99694.44;10526359;28;20547;-80
2021/07/28 12:55:13;;;;;;;3.63;2.83;;;;;;;25.65;44.59;99695.09;10526002;28;20083;-80
2021/07/28 13:00:15;;;;;;;2.30;2.10;;;;;;;25.54;45.65;99694.47;10544664;28;20104;-80
2021/07/28 13:05:24;;;;;;;2.35;2.15;;;;;;;25.33;46.03;99692.09;10543922;28;20048;-80
2021/07/28 13:10:26;;;;;;;2.88;2.67;;;;;;;25.19;46.50;99716.78;10526102;28;20046;-80
2021/07/28 13:15:28;;;;;;;2.30;2.20;;;;;;;25.12;46.64;99714.69;10543881;28;20112;-80
2021/07/28 13:20:30;;;;;;;3.28;1.90;;;;;;;25.37;47.35;99718.53;10545261;28;20453;-81
2021/07/28 13:25:32;;;;;;;3.17;2.80;;;;;;;25.20;47.55;99711.28;10546103;28;20055;-80
2021/07/28 13:30:34;;;;;;;3.22;2.50;;;;;;;24.95;45.29;99707.41;10553956;28;20055;-80
2021/07/28 13:35:37;;;;;;;3.42;2.42;;;;;;;24.51;46.88;99709.81;10554737;28;20055;-82
2021/07/28 13:40:38;;;;;;;3.10;2.80;;;;;;;24.32;48.53;99721.44;10555333;28;20501;-80
2021/07/28 13:45:41;;;;;;;2.60;2.40;;;;;;;24.16;48.38;99731.91;10569588;28;20117;-80
2021/07/28 13:50:42;;;;;;;3.83;2.97;;;;;;;23.71;49.90;99761.16;10555180;28;20043;-81
2021/07/28 13:55:44;;;;;;;3.20;2.90;;;;;;;23.39;51.68;99764.88;10554911;28;20355;-81
2021/07/28 14:00:45;;;;;;;3.47;3.00;;;;;;;23.18;53.03;99756.91;10542800;28;20050;-80
2021/07/28 14:05:47;;;;;;;3.20;2.90;;;;;;;22.97;53.90;99756.13;10573325;28;20095;-79
2021/07/28 14:10:49;;;;;;;3.85;2.60;;;;;;;22.79;54.18;99747.81;10524674;28;20127;-80
2021/07/28 14:15:53;;;;;;;3.05;2.85;;;;;;;22.77;54.57;99737.25;10555108;28;20056;-80
2021/07/28 14:20:54;;;;;;;4.45;2.65;;;;;;;22.61;54.98;99718.13;10536276;28;20112;-80
2021/07/28 14:25:56;;;;;;;2.60;2.40;;;;;;;22.44;54.79;99716.03;10539818;28;20083;-80
2021/07/28 14:30:58;;;;;;;3.15;2.92;;;;;;;22.37;55.86;99739.84;10557811;28;20044;-84
2021/07/28 14:35:59;;;;;;;3.05;2.85;;;;;;;22.29;57.08;99736.97;10579534;22;20051;-79
2021/07/28 14:41:01;;;;;;;3.00;2.65;;;;;;;22.05;56.95;99759.44;10570890;28;20113;-82
2021/07/28 14:46:02;;;;;;;3.75;2.80;;;;;;;21.69;60.11;99757.13;10549910;28;20113;-81
2021/07/28 14:51:07;;;;;;;2.85;2.60;;;;;;;21.16;60.20;99742.66;10555569;28;20048;-82
2021/07/28 14:56:09;;;;;;;2.63;2.42;;;;;;;20.90;62.88;99749.22;10540473;28;20044;-83
2021/07/28 15:01:11;;;;;;;4.57;2.88;;;;;;;20.84;64.63;99771.91;10543969;28;20060;-83
2021/07/28 15:06:13;;;;;;;3.10;2.90;;;;;;;20.89;64.54;99750.16;10561541;28;20094;-83
2021/07/28 15:11:14;;;;;;;3.20;2.60;;;;;;;20.57;64.71;99726.00;10562720;28;20489;-81
2021/07/28 15:16:16;;;;;;;3.05;2.85;;;;;;;20.46;65.11;99712.63;10543088;28;20063;-83
2021/07/28 15:21:18;;;;;;;2.90;2.70;;;;;;;20.32;64.76;99708.31;10557176;28;20047;-82
2021/07/28 15:26:19;;;;;;;2.75;2.55;;;;;;;20.40;64.36;99697.91;10556050;28;20100;-86
2021/07/28 15:31:21;;;;;;;3.63;2.50;;;;;;;20.37;63.99;99707.03;10555508;28;20117;-85
2021/07/28 15:36:23;;;;;;;3.53;2.20;;;;;;;20.23;65.17;99696.56;10537745;28;20470;-84
2021/07/28 15:41:26;;;;;;;3.03;2.40;;;;;;;20.39;64.02;99705.06;10534871;28;20208;-83
2021/07/28 15:46:28;;;;;;;2.10;2.00;;;;;;;20.58;63.25;99709.84;10552293;28;20040;-82
2021/07/28 15:51:32;;;;;;;2.60;2.35;;;;;;;20.70;61.99;99696.50;10536994;28;20040;-84
2021/07/28 15:56:34;;;;;;;2.17;2.05;;;;;;;20.69;62.49;99692.16;10534403;28;20107;-83
2021/07/28 16:01:36;;;;;;;2.28;2.08;;;;;;;20.88;61.71;99682.53;10551130;28;20048;-83
2021/07/28 16:06:40;;;;;;;2.10;1.90;;;;;;;21.01;61.13;99686.91;10554615;28;20386;-83
2021/07/28 16:11:41;;;;;;;2.20;1.60;;;;;;;21.02;60.17;99693.94;10533730;28;20561;-82
2021/07/28 16:16:43;;;;;;;2.05;1.77;;;;;;;21.01;62.93;99679.72;10534842;28;20089;-83
2021/07/28 16:21:47;;;;;;;1.92;1.83;;;;;;;21.09;61.53;99687.13;10534328;28;20115;-82
2021/07/28 16:26:49;;;;;;;2.35;1.90;;;;;;;21.28;60.09;99670.44;10551122;28;20153;-82
2021/07/28 16:32:10;;;;;;;3.20;1.58;;;;;;;21.31;60.92;99676.44;10544970;28;20054;-83
2021/07/28 16:37:12;;;;;;;3.22;1.95;;;;;;;21.28;60.88;99681.13;10580638;28;20445;-83
2021/07/28 16:42:13;;;;;;;2.15;1.83;;;;;;;21.51;59.66;99671.25;10579803;28;20155;-83
2021/07/28 16:47:15;;;;;;;2.00;1.77;;;;;;;21.45;60.97;99661.06;10552517;28;20051;-82
2021/07/28 16:52:16;;;;;;;1.95;1.85;;;;;;;21.47;60.61;99651.97;10514147;28;20621;-82
2021/07/28 16:57:18;;;;;;;2.75;1.83;;;;;;;21.62;59.13;99645.31;10529583;28;20064;-81
2021/07/28 17:02:19;;;;;;;2.25;1.85;;;;;;;21.91;55.50;99642.88;10533353;28;20150;-81
2021/07/28 17:07:21;;;;;;;1.70;1.60;;;;;;;22.01;56.13;99639.41;10541941;28;20031;-80
2021/07/28 17:12:22;;;;;;;2.05;1.92;;;;;;;22.17;57.07;99646.00;10571768;28;20055;-83
2021/07/28 17:17:24;;;;;;;1.95;1.80;;;;;;;22.42;55.66;99642.06;10584744;28;20105;-82
2021/07/28 17:22:26;;;;;;;2.58;1.80;;;;;;;22.21;54.67;99646.59;10583880;28;20047;-79
2021/07/28 17:27:28;;;;;;;2.45;2.00;;;;;;;22.20;55.74;99649.41;10571346;28;20064;-84
2021/07/28 17:32:30;;;;;;;2.13;1.95;;;;;;;22.24;55.79;99643.66;10554448;28;20112;-84
2021/07/28 17:38:07;;;;;;;2.70;2.25;;;;;;;22.14;56.17;99653.47;10574402;28;20051;-84
2021/07/28 17:43:08;;;;;;;2.20;2.00;;;;;;;21.88;57.85;99664.53;10552589;28;20103;-83
2021/07/28 17:48:10;;;;;;;2.33;2.13;;;;;;;21.50;57.98;99664.22;10553619;28;20074;-83
2021/07/28 17:53:12;;;;;;;2.50;2.30;;;;;;;21.69;58.12;99659.00;10550431;28;20058;-85
2021/07/28 17:58:15;;;;;;;2.80;2.15;;;;;;;21.68;56.89;99676.03;10559087;28;20120;-84
2021/07/28 18:03:36;;;;;;;1.98;1.88;;;;;;;21.66;57.88;99670.00;10567175;28;20165;-83
2021/07/28 18:08:38;;;;;;;3.30;2.95;;;;;;;21.22;59.77;99666.47;10533533;28;20101;-83
2021/07/28 18:13:39;;;;;;;2.75;2.55;;;;;;;21.05;60.18;99678.50;10516887;28;20150;-83
2021/07/28 18:18:41;;;;;;;2.97;2.67;;;;;;;20.90;61.36;99677.09;10554195;28;20434;-83
2021/07/28 18:23:42;;;;;;;2.97;2.78;;;;;;;20.69;61.18;99676.97;10536577;28;20452;-83
2021/07/28 18:28:44;;;;;;;2.92;2.30;;;;;;;20.63;62.06;99683.66;10535074;28;20032;-82
2021/07/28 18:33:45;;;;;;;2.60;2.38;;;;;;;20.41;63.25;99691.63;10554368;28;20044;-82
2021/07/28 18:38:47;;;;;;;2.75;2.55;;;;;;;20.44;62.77;99690.50;10553611;28;20414;-82
2021/07/28 18:43:49;;;;;;;3.63;3.33;;;;;;;20.63;62.71;99693.50;10555369;28;20048;-83
2021/07/28 18:48:50;;;;;;;3.25;2.90;;;;;;;20.64;63.50;99700.53;10535984;28;20048;-83
2021/07/28 18:53:52;;;;;;;3.38;3.00;;;;;;;20.52;63.21;99713.00;10554255;28;20051;-83
2021/07/28 18:58:53;;;;;;;3.20;3.00;;;;;;;20.77;62.07;99708.44;10536182;28;20040;-83
2021/07/28 19:03:55;;;;;;;5.65;2.80;;;;;;;20.40;63.83;99719.25;10519517;28;20119;-82
2021/07/28 19:08:56;;;;;;;3.20;2.85;;;;;;;20.20;65.16;99727.97;10554970;28;20500;-83
2021/07/28 19:14:07;;;;;;;3.35;2.90;;;;;;;20.27;64.78;99723.84;10537488;28;20048;-84
2021/07/28 19:19:10;;;;;;;3.35;3.05;;;;;;;20.04;65.75;99734.47;10551975;28;20058;-84
2021/07/28 19:24:12;;;;;;;3.97;3.10;;;;;;;20.25;65.06;99733.81;10533662;28;20039;-85
2021/07/28 19:29:13;;;;;;;3.50;3.30;;;;;;;20.14;64.82;99734.59;10558036;28;20052;-85
2021/07/28 19:34:15;;;;;;;4.80;3.40;;;;;;;19.78;66.15;99740.91;10554975;28;20048;-83
2021/07/28 19:39:18;;;;;;;4.03;3.70;;;;;;;19.59;66.57;99739.56;10555705;28;20044;-82
2021/07/28 19:44:20;;;;;;;4.03;3.72;;;;;;;19.33;67.46;99741.47;10537068;28;20054;-82
2021/07/28 19:49:22;;;;;;;4.00;3.60;;;;;;;19.34;67.66;99739.66;10553532;28;20086;-85
2021/07/28 19:54:23;;;;;;;2.75;2.55;;;;;;;19.69;66.12;99742.44;10553555;28;20052;-82
2021/07/28 19:59:25;;;;;;;3.40;3.20;;;;;;;19.49;67.13;99727.91;10535241;28;20109;-83
2021/07/28 20:04:27;;;;;;;3.42;3.22;;;;;;;19.34;68.16;99740.50;10533682;28;20147;-84
2021/07/28 20:09:28;;;;;;;3.75;3.45;;;;;;;19.18;68.47;99737.28;10553324;28;20163;-84
2021/07/28 20:14:30;;;;;;;4.13;3.72;;;;;;;19.11;68.67;99739.50;10561584;28;20055;-84
2021/07/28 20:19:32;;;;;;;3.90;3.60;;;;;;;19.13;68.86;99729.63;10582108;28;20059;-84
2021/07/28 20:24:34;;;;;;;3.92;3.63;;;;;;;19.10;68.55;99727.16;10556853;28;20048;-83
2021/07/28 20:29:36;;;;;;;3.38;3.10;;;;;;;19.20;68.24;99729.16;10533566;28;20078;-79
2021/07/28 20:34:39;;;;;;;4.50;4.00;;;;;;;19.34;67.76;99724.53;10564199;28;20113;-80
2021/07/28 20:39:40;;;;;;;6.18;3.75;;;;;;;19.50;66.05;99729.59;10567853;28;20047;-87
2021/07/28 20:44:42;;;;;;;3.03;2.83;;;;;;;19.60;64.44;99722.63;10554789;28;20067;-86
2021/07/28 20:49:44;;;;;;;3.50;3.17;;;;;;;19.53;64.76;99729.38;10536027;28;20040;-86
2021/07/28 20:54:46;;;;;;;3.40;3.10;;;;;;;19.73;63.74;99729.72;10517472;28;20044;-86
2021/07/28 20:59:48;;;;;;;3.92;3.53;;;;;;;19.62;64.33;99730.53;10555056;28;20048;-85
2021/07/28 21:04:49;;;;;;;4.13;3.33;;;;;;;19.61;64.32;99729.69;10536968;28;20531;-83
2021/07/28 21:09:51;;;;;;;3.42;3.20;;;;;;;19.59;64.38;99731.56;10533249;28;20062;-85
2021/07/28 21:14:52;;;;;;;3.30;3.10;;;;;;;19.51;64.93;99727.78;10517794;28;20048;-86
2021/07/28 21:19:54;;;;;;;3.83;3.53;;;;;;;19.41;65.21;99733.78;10534063;28;20042;-85
2021/07/28 21:24:55;;;;;;;3.47;3.28;;;;;;;19.47;64.95;99729.81;10536653;28;20098;-85
2021/07/28 21:29:57;;;;;;;4.15;3.67;;;;;;;19.44;65.54;99739.88;10521386;28;20040;-85
2021/07/28 21:34:59;;;;;;;3.38;3.08;;;;;;;19.41;65.49;99748.94;10538675;28;20044;-86
2021/07/28 21:40:01;;;;;;;3.70;3.15;;;;;;;19.23;65.91;99752.94;10556315;28;20439;-86
2021/07/28 21:50:28;;;;;;;3.53;3.22;;;;;;;19.16;66.00;99752.50;10568033;28;20028;-86
2021/07/28 21:55:37;;;;;;;3.53;3.22;;;;;;;19.38;65.00;99759.81;10587874;28;20167;-84
2021/07/28 22:00:39;;;;;;;3.92;3.00;;;;;;;19.31;65.91;99766.56;10569703;28;20052;-85
2021/07/28 22:05:41;;;;;;;4.40;3.65;;;;;;;19.09;67.06;99756.59;10570174;28;20044;-85
2021/07/28 22:10:43;;;;;;;4.45;4.15;;;;;;;18.92;67.33;99757.78;10587516;28;20027;-85
2021/07/28 22:15:44;;;;;;;3.88;3.60;;;;;;;18.85;68.00;99752.00;10544482;28;20778;-86
2021/07/28 22:20:46;;;;;;;4.20;3.80;;;;;;;19.01;67.86;99745.63;10544221;28;20043;-85
2021/07/28 22:25:47;;;;;;;4.45;4.05;;;;;;;18.97;68.07;99749.47;10550009;28;20403;-86
2021/07/28 22:30:50;;;;;;;4.55;4.20;;;;;;;19.07;68.06;99738.03;10561909;28;20044;-86
2021/07/28 22:35:52;;;;;;;4.00;3.70;;;;;;;19.19;67.50;99740.78;10579539;28;20052;-83
2021/07/28 22:40:53;;;;;;;4.75;4.40;;;;;;;19.00;68.86;99734.13;10553297;28;20048;-85
2021/07/28 22:45:55;;;;;;;6.25;5.85;;;;;;;19.19;68.75;99740.78;10527780;28;20048;-85
2021/07/28 22:56:22;;;;;;;4.70;4.40;;;;;;;19.04;68.87;99740.09;10564126;28;20074;-85
2021/07/28 23:11:51;;;;;;;4.45;4.15;;;;;;;19.29;66.89;99721.34;10541173;28;20371;-86
2021/07/28 23:16:53;;;;;;;5.80;4.15;;;;;;;19.45;65.93;99717.56;10557560;28;20036;-87
2021/07/28 23:21:55;;;;;;;4.30;3.90;;;;;;;19.40;66.22;99725.91;10542071;28;20036;-87
2021/07/28 23:26:56;;;;;;;4.00;3.67;;;;;;;19.33;66.42;99719.31;10544861;28;20048;-86
2021/07/28 23:31:58;;;;;;;4.88;4.57;;;;;;;19.10;67.22;99718.31;10578064;28;20032;-85
2021/07/28 23:36:59;;;;;;;3.97;3.67;;;;;;;19.12;66.87;99724.38;10557050;28;20052;-85
2021/07/28 23:42:01;;;;;;;4.60;4.30;;;;;;;19.28;66.37;99714.31;10561170;28;20048;-84
2021/07/28 23:47:03;;;;;;;4.55;4.15;;;;;;;19.30;66.34;99709.75;10561361;28;20044;-84
2021/07/28 23:52:04;;;;;;;4.70;4.40;;;;;;;19.34;66.07;99695.19;10546934;28;20062;-85
2021/07/28 23:57:06;;;;;;;4.20;3.78;;;;;;;19.38;65.59;99704.69;10564898;28;20070;-85
